createdAt,value
2019-03-05T00:01:18.419Z,47.7
2019-03-05T00:06:25.169Z,47.6
2019-03-05T00:12:12.468Z,47.6
2019-03-05T00:17:22.352Z,47.5
2019-03-05T00:22:26.266Z,47.4
2019-03-05T00:27:28.051Z,47.4
2019-03-05T00:32:37.303Z,47.3
2019-03-05T00:37:52.732Z,47.2
2019-03-05T00:43:01.625Z,47.2
2019-03-05T00:48:11.295Z,47.1
2019-03-05T00:54:06.382Z,47.1
2019-03-05T00:59:08.189Z,47
2019-03-05T01:04:10.983Z,46.9
2019-03-05T01:09:20.477Z,46.9
2019-03-05T01:14:22.518Z,46.8
2019-03-05T01:19:24.502Z,46.7
2019-03-05T01:24:32.214Z,46.7
2019-03-05T01:29:36.987Z,46.6
2019-03-05T01:35:00.337Z,46.6
2019-03-05T01:40:02.955Z,46.5
2019-03-05T01:45:06.627Z,46.4
2019-03-05T01:50:10.872Z,46.4
2019-03-05T01:55:12.802Z,46.3
2019-03-05T02:00:14.744Z,46.2
2019-03-05T02:05:20.629Z,46.2
2019-03-05T02:10:32.613Z,46.1
2019-03-05T02:15:37.331Z,46.1
2019-03-05T02:20:41.479Z,46.1
2019-03-05T02:26:04.650Z,46
2019-03-05T02:31:07.860Z,45.9
2019-03-05T02:36:10.940Z,45.9
2019-03-05T02:41:21.557Z,45.8
2019-03-05T02:51:34.090Z,45.7
2019-03-05T02:56:42.255Z,45.6
2019-03-05T03:07:00.829Z,45.5
2019-03-05T03:12:10.181Z,45.4
2019-03-05T03:17:14.089Z,45.4
2019-03-05T03:22:25.136Z,45.3
2019-03-05T03:27:27.025Z,45.2
2019-03-05T03:32:35.889Z,45.2
2019-03-05T03:37:44.233Z,45.1
2019-03-05T03:42:57.494Z,45.1
2019-03-05T03:47:59.594Z,45
2019-03-05T03:53:03.429Z,44.9
2019-03-05T03:58:15.035Z,44.9
2019-03-05T04:03:16.908Z,44.9
2019-03-05T04:08:21.115Z,44.7
2019-03-05T04:13:31.936Z,44.7
2019-03-05T04:18:33.700Z,44.7
2019-03-05T04:23:35.850Z,44.6
2019-03-05T04:28:37.621Z,44.6
2019-03-05T04:33:39.525Z,44.5
2019-03-05T04:38:41.342Z,44.4
2019-03-05T04:43:49.176Z,44.4
2019-03-05T04:48:54.838Z,44.4
2019-03-05T04:53:56.666Z,44.3
2019-03-05T04:59:03.629Z,44.2
2019-03-05T05:04:24.007Z,44.2
2019-03-05T05:09:26.746Z,44.1
2019-03-05T05:14:36.825Z,44.1
2019-03-05T05:19:41.348Z,44
2019-03-05T05:24:43.474Z,43.9
2019-03-05T05:32:56.295Z,43.7
2019-03-05T05:38:07.078Z,43.6
2019-03-05T05:43:08.781Z,43.6
2019-03-05T05:48:10.469Z,43.6
2019-03-05T05:53:17.651Z,43.5
2019-03-05T05:58:40.540Z,43.4
2019-03-05T06:03:55.536Z,43.4
2019-03-05T06:09:06.055Z,43.3
2019-03-05T06:14:07.743Z,43.3
2019-03-05T06:19:27.663Z,43.3
2019-03-05T06:24:29.158Z,43.2
2019-03-05T06:29:31.089Z,43.1
2019-03-05T06:40:05.445Z,43
2019-03-05T06:45:09.803Z,43
2019-03-05T06:50:12.705Z,42.9
2019-03-05T08:06:04.226Z,42.2
2019-03-05T08:16:15.175Z,42.1
2019-03-05T08:21:38.369Z,42.1
2019-03-05T08:26:40.705Z,42
2019-03-05T08:31:43.183Z,42
2019-03-05T08:41:52.949Z,41.9
2019-03-05T08:46:54.577Z,41.8
2019-03-05T08:52:05.900Z,41.8
2019-03-05T08:57:18.532Z,41.7
2019-03-05T09:02:23.151Z,41.7
2019-03-05T09:07:30.241Z,41.7
2019-03-05T09:12:46.026Z,41.6
2019-03-05T09:17:47.996Z,41.6
2019-03-05T09:26:00.684Z,41.6
2019-03-05T09:31:05.865Z,41.5
2019-03-05T09:36:11.838Z,41.4
2019-03-05T09:41:20.107Z,41.4
2019-03-05T09:46:26.066Z,41.4
2019-03-05T09:56:43.123Z,41.2
2019-03-05T10:01:53.942Z,41.2
2019-03-05T10:12:04.831Z,41.1
2019-03-05T10:22:23.161Z,41.1
2019-03-05T10:27:32.218Z,41
2019-03-05T10:32:33.857Z,41
2019-03-05T10:38:04.320Z,40.9
2019-03-05T10:43:17.438Z,40.9
2019-03-05T10:48:19.046Z,40.8
2019-03-05T10:53:27.373Z,40.8
2019-03-05T10:58:35.547Z,40.8
2019-03-05T11:03:40.173Z,40.8
2019-03-05T11:08:44.992Z,40.7
2019-03-05T11:13:48.130Z,40.7
2019-03-05T11:18:53.647Z,40.6
2019-03-05T11:23:55.596Z,40.6
2019-03-05T11:34:05.064Z,40.5
2019-03-05T11:39:13.720Z,40.4
2019-03-05T11:44:18.642Z,40.4
2019-03-05T11:49:20.740Z,40.4
2019-03-05T11:54:25.411Z,40.4
2019-03-05T11:59:37.911Z,40.3
2019-03-05T12:04:41.799Z,40.2
2019-03-05T12:09:46.467Z,40.2
2019-03-05T12:14:56.979Z,40.2
2019-03-05T12:20:04.416Z,40.2
2019-03-05T12:25:06.067Z,40.1
2019-03-05T12:30:08.957Z,40.1
2019-03-05T12:35:16.743Z,40.1
2019-03-05T15:30:54.793Z,38.9
2019-03-05T15:36:05.605Z,38.8
2019-03-05T15:41:13.948Z,38.8
2019-03-05T15:46:16.706Z,38.7
2019-03-05T16:01:39.693Z,38.7
2019-03-05T16:06:41.595Z,38.6
2019-03-05T16:12:09.201Z,38.6
2019-03-05T16:18:01.207Z,38.6
2019-03-05T16:23:06.804Z,38.6
2019-03-05T16:28:11.267Z,38.5
2019-03-05T16:33:24.555Z,38.5
2019-03-05T16:39:31.652Z,38.4
2019-03-05T16:44:35.974Z,38.4
2019-03-05T16:49:38.200Z,38.4
2019-03-05T17:00:01.940Z,38.3
2019-03-05T17:06:37.840Z,38.3
2019-03-05T17:11:40.962Z,38.2
2019-03-05T17:16:47.127Z,38.2
2019-03-05T17:21:59.143Z,38.2
2019-03-05T17:27:04.800Z,38.1
2019-03-05T17:32:23.580Z,38.1
2019-03-05T17:37:26.794Z,38.1
2019-03-05T17:42:52.357Z,39.6
2019-03-05T17:47:58.661Z,41
2019-03-05T17:53:05.390Z,41.8
2019-03-05T17:58:07.655Z,42.5
2019-03-05T18:08:33.810Z,43.7
2019-03-05T18:13:40.639Z,44.2
2019-03-05T18:18:43.833Z,44.7
2019-03-05T18:23:50.312Z,45.2
2019-03-05T18:29:03.575Z,45.6
2019-03-05T18:34:20.116Z,45.9
2019-03-05T18:39:25.882Z,46.1
2019-03-05T18:44:28.028Z,46.4
2019-03-05T18:49:32.668Z,46.4
2019-03-05T18:55:10.371Z,46.6
2019-03-05T19:00:18.971Z,46.6
2019-03-05T19:05:37.122Z,46.6
2019-03-05T19:10:50.463Z,46.7
2019-03-05T19:16:24.008Z,46.7
2019-03-05T19:21:27.117Z,46.9
2019-03-05T19:26:29.189Z,47.3
2019-03-05T19:36:43.153Z,47.9
2019-03-05T19:42:07.209Z,48.1
2019-03-05T20:04:14.201Z,48
2019-03-05T20:09:37.145Z,47.9
2019-03-05T20:14:51.319Z,47.9
2019-03-05T20:25:00.415Z,47.8
2019-03-05T20:30:23.368Z,47.7
2019-03-05T20:35:46.634Z,47.7
2019-03-05T20:40:51.623Z,47.7
2019-03-05T20:45:53.441Z,47.7
2019-03-05T20:50:59.581Z,47.6
2019-03-05T20:56:00.900Z,47.6
2019-03-05T21:01:07.675Z,47.6
2019-03-05T21:06:27.750Z,47.5
2019-03-05T21:11:39.903Z,47.4
2019-03-05T21:16:45.709Z,47.4
2019-03-05T21:21:52.415Z,47.4
2019-03-05T21:27:04.453Z,47.3
2019-03-05T21:37:24.322Z,47.2
2019-03-05T21:42:27.890Z,47.2
2019-03-05T21:47:54.588Z,47.1
2019-03-05T21:53:11.035Z,47.1
2019-03-05T21:58:28.777Z,47.1
2019-03-05T22:03:31.546Z,47
2019-03-05T22:08:38.932Z,46.9
2019-03-05T22:14:13.682Z,46.9
2019-03-05T22:19:40.111Z,46.9
2019-03-05T22:30:00.927Z,46.7
2019-03-05T22:35:04.186Z,46.7
2019-03-05T22:40:06.152Z,46.6
2019-03-05T22:45:09.420Z,46.6
2019-03-05T22:50:24.467Z,46.6
2019-03-05T22:55:39.793Z,46.5
2019-03-05T23:00:52.272Z,46.4
2019-03-05T23:06:03.172Z,46.4
2019-03-05T23:11:13.633Z,46.4
2019-03-05T23:16:21.761Z,46.3
2019-03-05T23:21:29.334Z,46.2
2019-03-05T23:32:19.900Z,46.1
2019-03-05T23:37:32.269Z,46.1
2019-03-05T23:42:38.585Z,46
2019-03-05T23:47:43.065Z,45.9
2019-03-05T23:52:47.980Z,45.9
2019-03-05T23:57:49.747Z,45.8
